createdAt,value
2023-05-02T00:06:31.760Z,12.17
2023-05-02T00:16:33.454Z,10.27
2023-05-02T00:26:35.102Z,12.60
2023-05-02T00:36:36.744Z,11.10
2023-05-02T00:46:38.488Z,11.03
2023-05-02T00:56:40.660Z,10.93
2023-05-02T01:06:42.282Z,10.43
2023-05-02T01:16:47.069Z,9.53
2023-05-02T01:27:02.673Z,11.03
2023-05-02T01:37:06.811Z,9.80
2023-05-02T01:47:10.312Z,10.73
2023-05-02T01:57:13.167Z,10.97
2023-05-02T02:07:15.191Z,10.03
2023-05-02T02:17:40.479Z,11.53
2023-05-02T02:27:42.984Z,10.97
2023-05-02T02:37:54.891Z,9.50
2023-05-02T02:48:19.073Z,10.83
2023-05-02T02:58:52.259Z,7.90
2023-05-02T03:08:53.865Z,10.70
2023-05-02T03:18:55.493Z,11.73
2023-05-02T03:28:57.387Z,6.50
2023-05-02T03:38:59.006Z,12.00
2023-05-02T03:49:00.626Z,8.13
2023-05-02T03:59:02.400Z,10.50
2023-05-02T04:09:04.086Z,8.63
2023-05-02T04:19:06.314Z,12.17
2023-05-02T04:29:08.013Z,9.50
2023-05-02T04:39:09.842Z,8.87
2023-05-02T04:49:12.110Z,9.83
2023-05-02T04:59:13.801Z,9.53
2023-05-02T05:09:15.816Z,8.80
2023-05-02T05:19:17.477Z,13.43
2023-05-02T05:29:19.290Z,11.27
2023-05-02T05:39:20.962Z,13.03
2023-05-02T05:49:24.219Z,14.50
2023-05-02T05:59:25.859Z,10.97
2023-05-02T06:09:27.606Z,10.70
2023-05-02T06:19:29.467Z,15.40
2023-05-02T06:29:31.487Z,18.90
2023-05-02T06:39:33.601Z,16.77
2023-05-02T06:49:35.412Z,13.83
2023-05-02T06:59:37.532Z,13.53
2023-05-02T07:09:39.369Z,15.27
2023-05-02T07:19:45.463Z,17.07
2023-05-02T07:29:48.528Z,21.97
2023-05-02T07:39:50.267Z,15.00
2023-05-02T07:49:52.655Z,15.57
2023-05-02T07:59:57.080Z,16.73
2023-05-02T08:09:59.176Z,17.33
2023-05-02T08:20:04.399Z,16.90
2023-05-02T08:30:07.150Z,13.47
2023-05-02T08:40:12.657Z,13.87
2023-05-02T08:50:16.724Z,11.97
2023-05-02T09:00:18.861Z,15.13
2023-05-02T09:10:21.896Z,11.60
2023-05-02T09:20:23.644Z,16.53
2023-05-02T09:30:26.500Z,10.17
2023-05-02T09:40:30.117Z,9.63
2023-05-02T09:50:38.559Z,11.80
2023-05-02T10:00:42.864Z,10.17
2023-05-02T10:10:57.008Z,12.33
2023-05-02T10:21:01.603Z,17.63
2023-05-02T10:31:05.151Z,13.20
2023-05-02T10:41:14.599Z,8.30
2023-05-02T10:51:31.391Z,7.37
2023-05-02T11:01:37.592Z,7.97
2023-05-02T11:11:43.528Z,7.43
2023-05-02T11:21:45.454Z,7.00
2023-05-02T11:31:55.002Z,7.10
2023-05-02T11:41:56.694Z,13.77
2023-05-02T11:51:59.333Z,7.37
2023-05-02T12:02:00.960Z,7.97
2023-05-02T12:12:03.440Z,11.87
2023-05-02T12:22:06.191Z,11.67
2023-05-02T12:32:08.349Z,8.90
2023-05-02T12:42:11.828Z,7.53
2023-05-02T12:52:13.894Z,5.67
2023-05-02T13:02:15.514Z,6.63
2023-05-02T13:12:18.147Z,7.33
2023-05-02T13:22:20.265Z,5.37
2023-05-02T13:32:22.438Z,4.97
2023-05-02T13:42:24.595Z,6.77
2023-05-02T13:52:26.713Z,4.57
2023-05-02T14:02:29.078Z,3.53
2023-05-02T14:12:31.754Z,2.40
2023-05-02T14:22:33.411Z,3.33
2023-05-02T14:32:35.327Z,9.07
2023-05-02T14:42:37.221Z,2.73
2023-05-02T14:52:39.069Z,2.90
2023-05-02T15:02:41.320Z,2.40
2023-05-02T15:12:43.261Z,2.63
2023-05-02T15:22:44.957Z,3.07
2023-05-02T15:32:46.664Z,2.27
2023-05-02T15:42:48.773Z,2.83
2023-05-02T15:52:50.946Z,1.95
2023-05-02T16:02:52.562Z,2.50
2023-05-02T16:12:54.561Z,2.10
2023-05-02T16:22:56.318Z,1.58
2023-05-02T16:32:57.942Z,2.30
2023-05-02T16:43:00.095Z,2.63
2023-05-02T16:53:01.766Z,4.80
2023-05-02T17:03:05.172Z,1.30
2023-05-02T17:13:07.761Z,1.17
2023-05-02T17:23:09.814Z,3.37
2023-05-02T17:33:12.021Z,1.17
2023-05-02T17:43:14.147Z,1.30
2023-05-02T17:53:16.219Z,1.40
2023-05-02T18:03:18.422Z,1.63
2023-05-02T18:13:20.161Z,2.87
2023-05-02T18:23:21.789Z,2.33
2023-05-02T18:33:23.450Z,1.80
2023-05-02T18:43:25.070Z,4.37
2023-05-02T18:53:26.736Z,3.37
2023-05-02T19:03:28.611Z,4.03
2023-05-02T19:13:31.045Z,4.90
2023-05-02T19:23:32.810Z,6.20
2023-05-02T19:33:34.597Z,3.73
2023-05-02T19:43:36.535Z,3.00
2023-05-02T19:53:38.356Z,5.73
2023-05-02T20:03:40.035Z,5.87
2023-05-02T20:13:41.742Z,7.00
2023-05-02T20:23:44.908Z,14.77
2023-05-02T20:33:46.573Z,11.67
2023-05-02T20:43:48.202Z,7.43
2023-05-02T20:53:49.885Z,9.53
2023-05-02T21:03:51.520Z,10.07
2023-05-02T21:13:53.220Z,8.20
2023-05-02T21:23:54.863Z,13.47
2023-05-02T21:33:56.497Z,9.53
2023-05-02T21:43:58.141Z,8.17
2023-05-02T21:53:59.941Z,9.17
2023-05-02T22:04:01.764Z,9.20
2023-05-02T22:14:03.385Z,8.57
2023-05-02T22:24:05.420Z,8.47
2023-05-02T22:34:07.093Z,11.50
2023-05-02T22:44:09.264Z,12.77
2023-05-02T22:54:10.989Z,14.10
2023-05-02T23:04:12.591Z,10.53
2023-05-02T23:14:15.019Z,15.87
2023-05-02T23:24:16.817Z,10.67
2023-05-02T23:34:18.561Z,12.83
2023-05-02T23:44:20.228Z,11.57
2023-05-02T23:54:21.976Z,10.30
